createdAt,value
2022-08-21T00:00:32.524Z,1.60
2022-08-21T00:01:32.529Z,1.90
2022-08-21T00:02:32.566Z,2.40
2022-08-21T00:03:32.469Z,1.60
2022-08-21T00:04:32.472Z,1.70
2022-08-21T00:05:32.472Z,1.80
2022-08-21T00:06:32.464Z,2.10
2022-08-21T00:07:32.438Z,1.60
2022-08-21T00:08:32.422Z,1.80
2022-08-21T00:09:32.416Z,2.30
2022-08-21T00:10:32.379Z,1.90
2022-08-21T00:11:32.364Z,1.90
2022-08-21T00:12:32.359Z,1.80
2022-08-21T00:13:32.383Z,2.00
2022-08-21T00:14:32.359Z,1.90
2022-08-21T00:15:32.336Z,1.90
2022-08-21T00:16:32.325Z,1.80
2022-08-21T00:17:32.296Z,2.20
2022-08-21T00:18:32.328Z,1.90
2022-08-21T00:19:32.289Z,1.80
2022-08-21T00:20:32.295Z,1.80
2022-08-21T00:21:32.240Z,2.10
2022-08-21T00:22:32.294Z,1.80
2022-08-21T00:23:32.211Z,2.10
2022-08-21T00:24:32.229Z,1.80
2022-08-21T00:25:32.194Z,1.80
2022-08-21T00:26:32.175Z,1.90
2022-08-21T00:27:32.207Z,2.10
2022-08-21T00:28:32.130Z,1.80
2022-08-21T00:29:32.149Z,2.00
2022-08-21T00:30:32.106Z,2.30
2022-08-21T00:31:32.112Z,1.80
2022-08-21T00:32:32.093Z,1.80
2022-08-21T00:33:32.094Z,1.80
2022-08-21T00:34:32.075Z,1.80
2022-08-21T00:35:32.056Z,1.80
2022-08-21T00:36:32.038Z,1.80
2022-08-21T00:37:32.035Z,2.00
2022-08-21T00:38:32.014Z,2.10
2022-08-21T00:39:32.011Z,2.10
2022-08-21T00:40:32.013Z,1.80
2022-08-21T00:41:38.276Z,2.00
2022-08-21T00:42:31.968Z,1.90
2022-08-21T00:43:31.976Z,2.00
2022-08-21T00:44:31.945Z,1.70
2022-08-21T00:45:31.950Z,2.20
2022-08-21T00:46:31.948Z,2.20
2022-08-21T00:47:31.929Z,1.90
2022-08-21T00:48:31.867Z,2.20
2022-08-21T00:49:31.873Z,1.70
2022-08-21T00:50:31.852Z,1.80
2022-08-21T00:51:31.827Z,1.90
2022-08-21T00:52:31.852Z,1.80
2022-08-21T00:53:31.792Z,2.20
2022-08-21T00:54:31.783Z,2.00
2022-08-21T00:55:31.764Z,2.20
2022-08-21T00:56:31.765Z,2.00
2022-08-21T00:57:31.762Z,1.90
2022-08-21T00:58:31.752Z,2.00
2022-08-21T00:59:31.774Z,2.60
2022-08-21T01:00:31.714Z,1.70
2022-08-21T01:01:31.721Z,2.20
2022-08-21T01:02:31.695Z,1.90
2022-08-21T01:03:31.654Z,2.30
2022-08-21T01:04:31.683Z,2.00
2022-08-21T01:05:31.636Z,2.00
2022-08-21T01:06:31.648Z,2.10
2022-08-21T01:07:31.637Z,1.90
2022-08-21T01:08:31.615Z,2.00
2022-08-21T01:09:31.575Z,2.00
2022-08-21T01:10:31.573Z,2.00
2022-08-21T01:11:31.582Z,2.30
2022-08-21T01:12:31.543Z,2.00
2022-08-21T01:13:31.571Z,2.10
2022-08-21T01:14:31.522Z,2.20
2022-08-21T01:15:31.501Z,2.00
2022-08-21T01:16:31.487Z,2.40
2022-08-21T01:17:31.517Z,2.30
2022-08-21T01:18:31.463Z,2.30
2022-08-21T01:19:31.446Z,1.90
2022-08-21T01:20:32.788Z,2.10
2022-08-21T01:21:31.407Z,2.20
2022-08-21T01:22:31.401Z,2.10
2022-08-21T01:23:31.416Z,2.50
2022-08-21T01:24:31.371Z,2.00
2022-08-21T01:25:31.367Z,2.20
2022-08-21T01:26:34.351Z,2.30
2022-08-21T01:27:31.372Z,2.40
2022-08-21T01:28:31.352Z,2.20
2022-08-21T01:29:31.317Z,2.50
2022-08-21T01:30:31.301Z,2.60
2022-08-21T01:31:31.333Z,2.40
2022-08-21T01:32:31.270Z,2.20
2022-08-21T01:33:31.308Z,2.40
2022-08-21T01:34:31.245Z,2.40
2022-08-21T01:35:31.294Z,2.10
2022-08-21T01:36:31.220Z,2.30
2022-08-21T01:37:31.201Z,2.10
2022-08-21T01:38:31.192Z,2.80
2022-08-21T01:39:31.239Z,2.30
2022-08-21T01:40:31.207Z,2.30
2022-08-21T01:41:31.151Z,2.30
2022-08-21T01:42:31.145Z,2.40
2022-08-21T01:43:35.681Z,2.30
2022-08-21T01:44:31.128Z,2.20
2022-08-21T01:45:31.130Z,2.30
2022-08-21T01:46:31.081Z,2.30
2022-08-21T01:47:31.064Z,2.20
2022-08-21T01:48:31.069Z,2.40
2022-08-21T01:49:31.075Z,2.10
2022-08-21T01:50:31.033Z,2.60
2022-08-21T01:51:31.039Z,2.20
2022-08-21T01:52:31.059Z,2.30
2022-08-21T01:53:33.278Z,2.10
2022-08-21T01:54:30.992Z,2.20
2022-08-21T01:55:30.969Z,2.10
2022-08-21T01:56:30.940Z,2.30
2022-08-21T01:57:30.962Z,2.40
2022-08-21T01:58:30.917Z,2.10
2022-08-21T01:59:30.912Z,1.90
2022-08-21T02:00:30.888Z,2.40
2022-08-21T02:01:30.907Z,2.00
2022-08-21T02:02:30.860Z,2.30
2022-08-21T02:03:35.174Z,2.00
2022-08-21T02:04:30.856Z,2.30
2022-08-21T02:05:30.861Z,2.20
2022-08-21T02:06:30.808Z,2.10
2022-08-21T02:07:30.818Z,2.20
2022-08-21T02:08:30.789Z,2.40
2022-08-21T02:09:30.786Z,2.00
2022-08-21T02:10:30.776Z,2.10
2022-08-21T02:11:30.786Z,1.80
2022-08-21T02:12:30.738Z,2.00
2022-08-21T02:13:30.753Z,2.00
2022-08-21T02:14:32.679Z,2.10
2022-08-21T02:15:30.714Z,2.20
2022-08-21T02:16:30.700Z,2.20
2022-08-21T02:17:30.671Z,1.80
2022-08-21T02:18:30.657Z,2.20
2022-08-21T02:19:30.675Z,2.10
2022-08-21T02:20:30.659Z,2.00
2022-08-21T02:21:30.626Z,1.90
2022-08-21T02:22:30.613Z,1.90
2022-08-21T02:23:30.603Z,2.30
2022-08-21T02:24:30.604Z,2.00
2022-08-21T02:25:30.559Z,2.10
2022-08-21T02:26:30.556Z,2.30
2022-08-21T02:27:30.564Z,2.30
2022-08-21T02:28:30.516Z,2.50
2022-08-21T02:29:30.504Z,2.40
2022-08-21T02:30:30.479Z,2.00
2022-08-21T02:31:30.514Z,2.40
2022-08-21T02:32:30.476Z,2.60
2022-08-21T02:33:30.447Z,2.70
2022-08-21T02:34:30.444Z,2.30
2022-08-21T02:35:30.431Z,2.40
2022-08-21T02:36:30.441Z,2.40
2022-08-21T02:37:30.418Z,2.40
2022-08-21T02:38:30.408Z,2.30
2022-08-21T02:39:30.380Z,2.20
2022-08-21T02:40:30.348Z,2.30
2022-08-21T02:41:30.363Z,2.10
2022-08-21T02:42:30.348Z,2.40
2022-08-21T02:43:30.322Z,2.40
2022-08-21T02:44:34.483Z,2.10
2022-08-21T02:45:30.298Z,2.30
2022-08-21T02:46:30.332Z,2.60
2022-08-21T02:47:30.295Z,2.20
2022-08-21T02:48:30.262Z,2.10
2022-08-21T02:49:30.236Z,2.40
2022-08-21T02:50:30.250Z,2.30
2022-08-21T02:51:30.220Z,2.20
2022-08-21T02:52:30.201Z,2.00
2022-08-21T02:53:30.191Z,2.30
2022-08-21T02:54:30.176Z,2.30
2022-08-21T02:55:30.207Z,2.20
2022-08-21T02:56:31.525Z,2.30
2022-08-21T02:57:30.149Z,2.40
2022-08-21T02:58:30.124Z,2.50
2022-08-21T02:59:30.112Z,2.40
2022-08-21T03:00:30.146Z,2.70
2022-08-21T03:01:30.129Z,2.70
2022-08-21T03:02:30.098Z,2.80
2022-08-21T03:03:30.067Z,2.70
2022-08-21T03:04:30.050Z,2.50
2022-08-21T03:05:30.052Z,2.70
2022-08-21T03:06:30.018Z,2.40
2022-08-21T03:07:29.998Z,2.50
2022-08-21T03:08:29.989Z,2.70
2022-08-21T03:09:29.991Z,2.70
2022-08-21T03:10:29.969Z,2.40
2022-08-21T03:11:30.017Z,2.40
2022-08-21T03:12:30.113Z,2.20
2022-08-21T03:13:29.926Z,2.20
2022-08-21T03:14:29.969Z,2.40
2022-08-21T03:15:29.920Z,2.70
2022-08-21T03:16:34.395Z,2.20
2022-08-21T03:17:30.278Z,2.50
2022-08-21T03:18:29.868Z,2.70
2022-08-21T03:19:29.887Z,2.10
2022-08-21T03:20:29.866Z,2.30
2022-08-21T03:21:29.833Z,2.40
2022-08-21T03:22:30.895Z,2.20
2022-08-21T03:23:32.584Z,2.30
2022-08-21T03:24:29.790Z,2.40
2022-08-21T03:25:40.679Z,2.20
2022-08-21T03:26:29.758Z,2.40
2022-08-21T03:27:29.916Z,2.30
2022-08-21T03:28:29.717Z,2.30
2022-08-21T03:29:29.744Z,2.10
2022-08-21T03:30:29.698Z,2.20
2022-08-21T03:31:29.710Z,2.40
2022-08-21T03:32:29.673Z,2.10
2022-08-21T03:33:29.722Z,2.50
2022-08-21T03:34:29.641Z,2.00
2022-08-21T03:35:29.668Z,2.20
2022-08-21T03:36:29.608Z,2.70
2022-08-21T03:37:30.249Z,2.50
2022-08-21T03:38:29.599Z,2.10
2022-08-21T03:39:29.582Z,2.40
2022-08-21T03:40:29.589Z,2.30
2022-08-21T03:41:29.575Z,2.20
2022-08-21T03:42:29.544Z,2.40
2022-08-21T03:43:32.147Z,2.30
2022-08-21T03:44:29.521Z,2.40
2022-08-21T03:45:29.545Z,2.20
2022-08-21T03:46:29.505Z,2.40
2022-08-21T03:47:29.469Z,2.30
2022-08-21T03:48:29.454Z,2.70
2022-08-21T03:49:29.449Z,2.50
2022-08-21T03:50:29.448Z,2.60
2022-08-21T03:51:29.422Z,2.50
2022-08-21T03:52:29.412Z,2.70
2022-08-21T03:53:29.396Z,2.50
2022-08-21T03:54:29.374Z,2.30
2022-08-21T03:55:29.383Z,2.60
2022-08-21T03:56:29.354Z,2.50
2022-08-21T03:57:29.394Z,2.50
2022-08-21T03:58:29.346Z,2.50
2022-08-21T03:59:29.326Z,2.40
2022-08-21T04:00:29.304Z,2.50
2022-08-21T04:01:29.345Z,2.40
2022-08-21T04:02:29.288Z,2.50
2022-08-21T04:03:29.309Z,2.40
2022-08-21T04:04:29.317Z,2.10
2022-08-21T04:05:29.240Z,2.50
2022-08-21T04:06:29.218Z,2.50
2022-08-21T04:07:29.229Z,2.90
2022-08-21T04:08:29.189Z,2.10
2022-08-21T04:09:29.172Z,2.60
2022-08-21T04:10:29.182Z,2.40
2022-08-21T04:11:29.173Z,2.50
2022-08-21T04:12:29.188Z,2.60
2022-08-21T04:13:29.263Z,2.50
2022-08-21T04:14:29.119Z,2.10
2022-08-21T04:15:29.108Z,2.50
2022-08-21T04:16:29.110Z,2.70
2022-08-21T04:17:29.084Z,2.80
2022-08-21T04:18:29.053Z,2.30
2022-08-21T04:19:29.050Z,2.50
2022-08-21T04:20:29.025Z,2.50
2022-08-21T04:21:29.056Z,2.60
2022-08-21T04:22:29.005Z,2.40
2022-08-21T04:23:28.995Z,2.40
2022-08-21T04:24:29.924Z,2.30
2022-08-21T04:25:29.005Z,2.40
2022-08-21T04:26:28.971Z,2.40
2022-08-21T04:27:28.953Z,2.60
2022-08-21T04:28:30.337Z,2.10
2022-08-21T04:29:28.921Z,2.30
2022-08-21T04:30:29.052Z,2.20
2022-08-21T04:31:28.916Z,2.00
2022-08-21T04:32:28.888Z,2.40
2022-08-21T04:33:28.865Z,2.10
2022-08-21T04:34:28.864Z,2.50
2022-08-21T04:35:28.863Z,1.90
2022-08-21T04:36:28.830Z,2.20
2022-08-21T04:37:28.825Z,2.10
2022-08-21T04:38:36.518Z,2.10
2022-08-21T04:39:29.806Z,2.20
2022-08-21T04:40:28.819Z,2.30
2022-08-21T04:41:28.754Z,2.10
2022-08-21T04:42:28.735Z,2.20
2022-08-21T04:43:28.756Z,2.40
2022-08-21T04:44:28.707Z,2.40
2022-08-21T04:45:28.692Z,2.30
2022-08-21T04:46:28.683Z,2.40
2022-08-21T04:47:41.869Z,2.30
2022-08-21T04:48:28.675Z,2.30
2022-08-21T04:49:28.666Z,2.20
2022-08-21T04:50:28.631Z,2.30
2022-08-21T04:51:28.644Z,2.00
2022-08-21T04:52:28.590Z,2.40
2022-08-21T04:53:28.596Z,1.90
2022-08-21T04:54:28.574Z,2.40
2022-08-21T04:55:28.603Z,2.30
2022-08-21T04:56:28.568Z,2.20
2022-08-21T04:57:39.715Z,2.60
2022-08-21T04:58:28.537Z,2.00
2022-08-21T04:59:28.509Z,2.20
2022-08-21T05:00:28.490Z,2.20
2022-08-21T05:01:28.568Z,2.40
2022-08-21T05:02:28.497Z,2.40
2022-08-21T05:03:28.452Z,2.10
2022-08-21T05:04:28.489Z,2.10
2022-08-21T05:05:28.445Z,2.30
2022-08-21T05:06:28.413Z,2.20
2022-08-21T05:07:42.621Z,2.40
2022-08-21T05:08:28.418Z,2.70
2022-08-21T05:09:28.396Z,2.40
2022-08-21T05:10:28.351Z,2.30
2022-08-21T05:11:28.363Z,2.60
2022-08-21T05:12:28.335Z,2.10
2022-08-21T05:13:28.350Z,2.50
2022-08-21T05:14:28.334Z,2.40
2022-08-21T05:15:28.310Z,2.30
2022-08-21T05:16:37.441Z,2.40
2022-08-21T05:17:28.285Z,2.20
2022-08-21T05:18:28.261Z,2.70
2022-08-21T05:19:28.259Z,2.40
2022-08-21T05:20:28.232Z,2.00
2022-08-21T05:21:28.207Z,2.40
2022-08-21T05:22:28.199Z,2.20
2022-08-21T05:23:28.202Z,2.30
2022-08-21T05:24:28.207Z,2.60
2022-08-21T05:25:28.359Z,2.70
2022-08-21T05:26:28.180Z,2.40
2022-08-21T05:27:28.129Z,2.40
2022-08-21T05:28:28.143Z,2.10
2022-08-21T05:29:28.141Z,2.30
2022-08-21T05:30:28.116Z,2.60
2022-08-21T05:31:28.076Z,2.40
2022-08-21T05:32:28.106Z,2.30
2022-08-21T05:33:28.053Z,2.60
2022-08-21T05:34:28.072Z,2.40
2022-08-21T05:35:28.040Z,2.20
2022-08-21T05:36:28.050Z,2.20
2022-08-21T05:37:28.014Z,2.40
2022-08-21T05:38:28.006Z,2.40
2022-08-21T05:39:27.972Z,2.20
2022-08-21T05:40:28.057Z,2.30
2022-08-21T05:41:27.991Z,2.30
2022-08-21T05:42:27.929Z,2.70
2022-08-21T05:43:27.933Z,2.30
2022-08-21T05:44:27.907Z,2.30
2022-08-21T05:45:43.115Z,2.80
2022-08-21T05:46:27.890Z,2.40
2022-08-21T05:47:27.888Z,2.00
2022-08-21T05:48:27.853Z,2.60
2022-08-21T05:49:27.868Z,2.70
2022-08-21T05:50:33.055Z,2.50
2022-08-21T05:51:27.840Z,3.00
2022-08-21T05:52:27.893Z,2.50
2022-08-21T05:53:27.785Z,2.70
2022-08-21T05:54:27.772Z,2.30
2022-08-21T05:55:27.783Z,2.70
2022-08-21T05:56:27.799Z,2.40
2022-08-21T05:57:27.738Z,2.30
2022-08-21T05:58:27.725Z,2.60
2022-08-21T05:59:27.696Z,2.30
2022-08-21T06:00:27.694Z,2.40
2022-08-21T06:01:27.730Z,2.60
2022-08-21T06:02:27.667Z,2.60
2022-08-21T06:03:27.706Z,2.40
2022-08-21T06:04:27.638Z,3.00
2022-08-21T06:05:37.289Z,2.40
2022-08-21T06:06:27.628Z,2.50
2022-08-21T06:07:27.641Z,2.80
2022-08-21T06:08:27.615Z,2.50
2022-08-21T06:09:27.583Z,2.90
2022-08-21T06:10:27.554Z,2.90
2022-08-21T06:11:29.157Z,2.90
2022-08-21T06:12:27.552Z,2.50
2022-08-21T06:13:27.523Z,2.90
2022-08-21T06:14:27.530Z,2.60
2022-08-21T06:15:27.506Z,2.90
2022-08-21T06:16:27.493Z,2.40
2022-08-21T06:17:27.473Z,2.60
2022-08-21T06:18:27.463Z,2.70
2022-08-21T06:19:27.456Z,3.00
2022-08-21T06:20:27.465Z,2.70
2022-08-21T06:21:27.421Z,3.20
2022-08-21T06:22:27.396Z,2.90
2022-08-21T06:23:31.758Z,2.80
2022-08-21T06:24:27.411Z,2.90
2022-08-21T06:25:27.357Z,2.70
2022-08-21T06:26:27.335Z,2.90
2022-08-21T06:27:27.334Z,3.20
2022-08-21T06:28:27.325Z,2.40
2022-08-21T06:29:27.362Z,2.90
2022-08-21T06:30:27.339Z,2.90
2022-08-21T06:31:27.321Z,2.90
2022-08-21T06:32:27.278Z,2.90
2022-08-21T06:33:32.359Z,2.90
2022-08-21T06:34:27.303Z,2.80
2022-08-21T06:35:27.228Z,2.80
2022-08-21T06:36:27.242Z,2.80
2022-08-21T06:37:27.241Z,2.90
2022-08-21T06:38:27.218Z,2.80
2022-08-21T06:39:30.823Z,3.30
2022-08-21T06:40:27.288Z,2.80
2022-08-21T06:41:27.289Z,2.70
2022-08-21T06:42:28.052Z,3.00
2022-08-21T06:43:39.494Z,2.60
2022-08-21T06:44:27.132Z,3.00
2022-08-21T06:45:28.334Z,2.80
2022-08-21T06:46:27.086Z,3.10
2022-08-21T06:47:27.068Z,2.90
2022-08-21T06:48:27.088Z,3.20
2022-08-21T06:49:27.088Z,2.80
2022-08-21T06:50:27.747Z,2.90
2022-08-21T06:51:27.028Z,2.60
2022-08-21T06:52:27.016Z,2.90
2022-08-21T06:53:27.007Z,3.40
2022-08-21T06:54:27.011Z,3.00
2022-08-21T06:55:29.211Z,2.80
2022-08-21T06:56:26.960Z,2.90
2022-08-21T06:57:26.936Z,3.00
2022-08-21T06:58:26.924Z,3.20
2022-08-21T06:59:26.937Z,3.00
2022-08-21T07:00:26.905Z,2.90
2022-08-21T07:01:26.925Z,2.80
2022-08-21T07:02:26.869Z,2.70
2022-08-21T07:03:26.851Z,2.80
2022-08-21T07:04:26.872Z,3.10
2022-08-21T07:05:26.838Z,3.30
2022-08-21T07:06:26.841Z,2.60
2022-08-21T07:07:26.805Z,2.90
2022-08-21T07:08:26.825Z,2.50
2022-08-21T07:09:26.787Z,3.10
2022-08-21T07:10:26.827Z,2.90
2022-08-21T07:11:26.741Z,2.80
2022-08-21T07:12:26.773Z,2.60
2022-08-21T07:13:26.767Z,2.90
2022-08-21T07:14:26.717Z,2.50
2022-08-21T07:15:26.723Z,2.90
2022-08-21T07:16:26.715Z,2.90
2022-08-21T07:17:26.675Z,2.70
2022-08-21T07:18:26.655Z,2.70
2022-08-21T07:19:26.648Z,3.00
2022-08-21T07:20:26.633Z,2.50
2022-08-21T07:21:26.647Z,2.70
2022-08-21T07:22:26.613Z,2.50
2022-08-21T07:23:26.587Z,3.00
2022-08-21T07:24:26.595Z,2.60
2022-08-21T07:25:26.569Z,2.60
2022-08-21T07:26:26.571Z,2.80
2022-08-21T07:27:26.574Z,2.40
2022-08-21T07:28:26.538Z,2.60
2022-08-21T07:29:26.524Z,2.90
2022-08-21T07:30:26.493Z,2.50
2022-08-21T07:31:26.542Z,2.50
2022-08-21T07:32:26.495Z,2.50
2022-08-21T07:33:26.474Z,2.50
2022-08-21T07:34:26.450Z,2.50
2022-08-21T07:35:26.430Z,2.60
2022-08-21T07:36:26.431Z,2.50
2022-08-21T07:37:26.417Z,2.70
2022-08-21T07:38:26.399Z,2.70
2022-08-21T07:39:26.373Z,2.40
2022-08-21T07:40:26.379Z,2.60
2022-08-21T07:41:26.350Z,2.70
2022-08-21T07:42:26.394Z,2.50
2022-08-21T07:43:26.322Z,2.00
2022-08-21T07:44:26.310Z,2.70
2022-08-21T07:45:26.338Z,2.50
2022-08-21T07:46:26.286Z,2.20
2022-08-21T07:47:41.744Z,2.40
2022-08-21T07:48:26.265Z,2.60
2022-08-21T07:49:26.287Z,2.60
2022-08-21T07:50:26.230Z,2.40
2022-08-21T07:51:26.239Z,2.10
2022-08-21T07:52:26.216Z,2.50
2022-08-21T07:53:26.193Z,2.60
2022-08-21T07:54:33.460Z,2.30
2022-08-21T07:55:26.185Z,2.30
2022-08-21T07:56:26.180Z,2.30
2022-08-21T07:57:26.143Z,2.40
2022-08-21T07:58:26.136Z,2.50
2022-08-21T07:59:26.213Z,2.40
2022-08-21T08:00:26.101Z,2.30
2022-08-21T08:01:26.144Z,2.70
2022-08-21T08:02:26.082Z,2.70
2022-08-21T08:03:28.709Z,2.20
2022-08-21T08:04:26.665Z,2.70
2022-08-21T08:05:26.062Z,2.60
2022-08-21T08:06:26.048Z,2.70
2022-08-21T08:07:26.006Z,2.60
2022-08-21T08:08:25.984Z,2.40
2022-08-21T08:09:25.993Z,2.60
2022-08-21T08:10:26.004Z,2.30
2022-08-21T08:11:25.962Z,2.50
2022-08-21T08:12:25.926Z,2.90
2022-08-21T08:13:25.960Z,2.40
2022-08-21T08:14:31.435Z,2.70
2022-08-21T08:15:25.909Z,2.40
2022-08-21T08:16:25.931Z,2.40
2022-08-21T08:17:25.919Z,2.70
2022-08-21T08:18:25.851Z,2.40
2022-08-21T08:19:25.854Z,2.60
2022-08-21T08:20:25.830Z,2.30
2022-08-21T08:21:25.868Z,2.40
2022-08-21T08:22:25.803Z,2.40
2022-08-21T08:23:25.812Z,2.70
2022-08-21T08:24:25.799Z,2.60
2022-08-21T08:25:25.759Z,2.30
2022-08-21T08:26:25.756Z,2.40
2022-08-21T08:27:25.762Z,2.40
2022-08-21T08:28:25.731Z,2.50
2022-08-21T08:29:25.737Z,2.40
2022-08-21T08:30:28.890Z,2.10
2022-08-21T08:31:25.718Z,2.40
2022-08-21T08:32:25.704Z,2.60
2022-08-21T08:33:25.677Z,2.50
2022-08-21T08:34:25.981Z,2.50
2022-08-21T08:35:25.621Z,2.60
2022-08-21T08:36:25.646Z,2.20
2022-08-21T08:37:29.484Z,2.50
2022-08-21T08:38:25.616Z,2.80
2022-08-21T08:39:26.519Z,2.30
2022-08-21T08:40:25.550Z,2.50
2022-08-21T08:41:30.673Z,2.10
2022-08-21T08:42:33.543Z,2.10
2022-08-21T08:43:25.566Z,2.60
2022-08-21T08:44:25.521Z,2.40
2022-08-21T08:45:25.534Z,2.50
2022-08-21T08:46:25.478Z,2.70
2022-08-21T08:47:25.492Z,2.30
2022-08-21T08:48:25.470Z,2.50
2022-08-21T08:49:25.459Z,2.30
2022-08-21T08:50:25.462Z,2.40
2022-08-21T08:51:25.422Z,2.50
2022-08-21T08:52:25.427Z,2.50
2022-08-21T08:53:25.425Z,2.50
2022-08-21T08:54:25.391Z,2.30
2022-08-21T08:55:27.239Z,2.10
2022-08-21T08:56:25.383Z,2.70
2022-08-21T08:57:25.365Z,2.20
2022-08-21T08:58:25.361Z,2.70
2022-08-21T08:59:25.331Z,2.60
2022-08-21T09:00:25.340Z,2.30
2022-08-21T09:01:25.356Z,2.60
2022-08-21T09:02:25.301Z,2.60
2022-08-21T09:03:25.279Z,2.80
2022-08-21T09:04:25.301Z,2.50
2022-08-21T09:05:25.265Z,2.50
2022-08-21T09:06:25.253Z,2.90
2022-08-21T09:07:25.278Z,2.80
2022-08-21T09:08:25.205Z,2.50
2022-08-21T09:09:25.206Z,2.50
2022-08-21T09:10:25.188Z,2.50
2022-08-21T09:11:25.237Z,2.10
2022-08-21T09:12:25.151Z,2.50
2022-08-21T09:13:25.132Z,2.40
2022-08-21T09:14:25.179Z,2.50
2022-08-21T09:15:25.121Z,2.50
2022-08-21T09:16:25.128Z,2.40
2022-08-21T09:17:25.088Z,2.40
2022-08-21T09:18:25.108Z,2.90
2022-08-21T09:19:25.267Z,2.30
2022-08-21T09:20:25.059Z,2.70
2022-08-21T09:21:25.034Z,2.70
2022-08-21T09:22:25.025Z,2.40
2022-08-21T09:23:25.050Z,2.30
2022-08-21T09:24:25.021Z,2.40
2022-08-21T09:25:24.999Z,2.20
2022-08-21T09:26:24.987Z,2.60
2022-08-21T09:27:24.965Z,2.40
2022-08-21T09:28:24.991Z,2.40
2022-08-21T09:29:24.942Z,2.50
2022-08-21T09:30:24.958Z,2.40
2022-08-21T09:31:24.920Z,2.50
2022-08-21T09:32:36.711Z,2.70
2022-08-21T09:33:24.881Z,2.50
2022-08-21T09:34:24.896Z,2.40
2022-08-21T09:35:24.936Z,2.30
2022-08-21T09:36:24.857Z,2.40
2022-08-21T09:37:24.852Z,2.20
2022-08-21T09:38:24.827Z,2.60
2022-08-21T09:39:24.811Z,2.40
2022-08-21T09:40:24.910Z,2.10
2022-08-21T09:41:24.802Z,2.70
2022-08-21T09:42:24.789Z,2.40
2022-08-21T09:43:24.777Z,2.30
2022-08-21T09:44:24.747Z,2.50
2022-08-21T09:45:24.749Z,2.70
2022-08-21T09:46:24.715Z,2.60
2022-08-21T09:47:26.838Z,2.30
2022-08-21T09:48:26.939Z,2.70
2022-08-21T09:49:24.677Z,2.60
2022-08-21T09:50:24.671Z,2.70
2022-08-21T09:51:24.644Z,2.20
2022-08-21T09:52:24.628Z,2.40
2022-08-21T09:53:24.668Z,2.40
2022-08-21T09:54:24.644Z,2.60
2022-08-21T09:55:24.593Z,2.50
2022-08-21T09:56:25.137Z,2.10
2022-08-21T09:57:24.564Z,2.60
2022-08-21T09:58:24.604Z,2.30
2022-08-21T09:59:24.553Z,2.30
2022-08-21T10:00:24.525Z,2.80
2022-08-21T10:01:24.627Z,2.50
2022-08-21T10:02:24.532Z,2.30
2022-08-21T10:03:24.494Z,2.20
2022-08-21T10:04:24.502Z,2.30
2022-08-21T10:05:24.494Z,2.60
2022-08-21T10:06:24.471Z,2.20
2022-08-21T10:07:24.457Z,2.40
2022-08-21T10:08:24.427Z,2.10
2022-08-21T10:09:24.406Z,2.40
2022-08-21T10:10:24.432Z,2.40
2022-08-21T10:11:24.385Z,2.80
2022-08-21T10:12:24.400Z,2.10
2022-08-21T10:13:24.359Z,2.10
2022-08-21T10:14:24.349Z,2.30
2022-08-21T10:15:24.372Z,2.60
2022-08-21T10:16:24.337Z,2.30
2022-08-21T10:17:24.308Z,2.40
2022-08-21T10:18:24.302Z,2.30
2022-08-21T10:19:24.887Z,2.20
2022-08-21T10:20:24.311Z,2.30
2022-08-21T10:21:24.301Z,2.40
2022-08-21T10:22:24.234Z,2.30
2022-08-21T10:23:24.252Z,2.50
2022-08-21T10:24:31.566Z,2.70
2022-08-21T10:25:24.214Z,2.20
2022-08-21T10:26:24.200Z,2.30
2022-08-21T10:27:24.202Z,2.10
2022-08-21T10:28:24.153Z,2.40
2022-08-21T10:29:24.154Z,2.00
2022-08-21T10:30:24.156Z,2.70
2022-08-21T10:31:24.122Z,2.60
2022-08-21T10:32:26.343Z,2.40
2022-08-21T10:33:24.093Z,2.10
2022-08-21T10:34:24.085Z,2.50
2022-08-21T10:35:24.132Z,2.50
2022-08-21T10:36:24.082Z,2.20
2022-08-21T10:37:24.098Z,2.50
2022-08-21T10:38:48.682Z,2.10
2022-08-21T10:39:35.017Z,3.00
2022-08-21T10:40:24.094Z,2.30
2022-08-21T10:41:24.017Z,1.90
2022-08-21T10:42:28.102Z,2.20
2022-08-21T10:43:23.991Z,2.10
2022-08-21T10:44:23.981Z,2.20
2022-08-21T10:45:23.944Z,2.20
2022-08-21T10:46:23.932Z,2.50
2022-08-21T10:47:23.958Z,1.90
2022-08-21T10:48:23.950Z,1.90
2022-08-21T10:49:23.917Z,2.60
2022-08-21T10:50:23.907Z,2.10
2022-08-21T10:51:28.994Z,2.00
2022-08-21T10:52:23.873Z,2.30
2022-08-21T10:53:23.866Z,2.30
2022-08-21T10:54:23.828Z,2.10
2022-08-21T10:55:23.813Z,2.50
2022-08-21T10:56:23.847Z,2.20
2022-08-21T10:57:24.118Z,2.20
2022-08-21T10:58:23.807Z,2.20
2022-08-21T10:59:23.767Z,2.50
2022-08-21T11:00:23.779Z,2.50
2022-08-21T11:01:23.792Z,2.30
2022-08-21T11:02:23.738Z,2.40
2022-08-21T11:03:23.748Z,1.90
2022-08-21T11:04:23.773Z,2.00
2022-08-21T11:05:23.725Z,1.60
2022-08-21T11:06:23.683Z,2.10
2022-08-21T11:07:23.680Z,1.70
2022-08-21T11:08:23.652Z,2.00
2022-08-21T11:09:23.678Z,1.90
2022-08-21T11:10:24.478Z,1.80
2022-08-21T11:11:23.620Z,2.20
2022-08-21T11:12:23.963Z,1.80
2022-08-21T11:13:23.584Z,2.00
2022-08-21T11:14:23.622Z,1.80
2022-08-21T11:15:28.587Z,1.90
2022-08-21T11:16:23.555Z,1.80
2022-08-21T11:17:23.531Z,1.60
2022-08-21T11:18:23.873Z,1.80
2022-08-21T11:19:23.517Z,2.10
2022-08-21T11:20:23.541Z,1.90
2022-08-21T11:21:23.506Z,1.90
2022-08-21T11:22:23.476Z,2.00
2022-08-21T11:23:23.452Z,2.10
2022-08-21T11:24:23.466Z,2.00
2022-08-21T11:25:23.429Z,1.90
2022-08-21T11:26:23.416Z,1.80
2022-08-21T11:27:23.434Z,1.90
2022-08-21T11:28:23.402Z,2.00
2022-08-21T11:29:23.394Z,1.70
2022-08-21T11:30:23.383Z,1.80
2022-08-21T11:31:23.383Z,2.00
2022-08-21T11:32:23.366Z,2.00
2022-08-21T11:33:23.341Z,2.00
2022-08-21T11:34:23.332Z,2.00
2022-08-21T11:35:23.313Z,2.10
2022-08-21T11:36:23.341Z,2.10
2022-08-21T11:37:23.285Z,2.10
2022-08-21T11:38:23.275Z,2.00
2022-08-21T11:39:23.245Z,1.80
2022-08-21T11:40:23.280Z,2.00
2022-08-21T11:41:23.249Z,1.90
2022-08-21T11:42:23.223Z,1.80
2022-08-21T11:43:23.214Z,1.90
2022-08-21T11:44:23.190Z,1.90
2022-08-21T11:45:23.171Z,2.10
2022-08-21T11:46:23.155Z,2.00
2022-08-21T11:47:23.152Z,2.10
2022-08-21T11:48:23.146Z,1.90
2022-08-21T11:49:23.158Z,2.00
2022-08-21T11:50:35.823Z,1.70
2022-08-21T11:51:23.094Z,1.70
2022-08-21T11:52:23.108Z,1.80
2022-08-21T11:53:23.062Z,2.10
2022-08-21T11:54:23.123Z,1.80
2022-08-21T11:55:23.835Z,1.90
2022-08-21T11:56:23.027Z,1.90
2022-08-21T11:57:23.009Z,1.60
2022-08-21T11:58:23.006Z,1.90
2022-08-21T11:59:23.033Z,1.80
2022-08-21T12:00:22.989Z,1.80
2022-08-21T12:01:22.960Z,2.10
2022-08-21T12:02:22.983Z,1.80
2022-08-21T12:03:22.932Z,1.90
2022-08-21T12:04:22.967Z,1.90
2022-08-21T12:05:22.917Z,1.90
2022-08-21T12:06:24.484Z,2.10
2022-08-21T12:07:22.902Z,1.90
2022-08-21T12:08:22.951Z,2.20
2022-08-21T12:09:22.860Z,1.80
2022-08-21T12:10:22.867Z,1.80
2022-08-21T12:11:22.830Z,2.00
2022-08-21T12:12:22.843Z,1.80
2022-08-21T12:13:22.792Z,1.90
2022-08-21T12:14:22.811Z,2.30
2022-08-21T12:15:22.811Z,2.20
2022-08-21T12:16:22.777Z,1.90
2022-08-21T12:17:22.788Z,2.00
2022-08-21T12:18:22.754Z,1.90
2022-08-21T12:19:22.751Z,1.90
2022-08-21T12:20:22.744Z,1.90
2022-08-21T12:21:22.714Z,1.90
2022-08-21T12:22:22.695Z,2.10
2022-08-21T12:23:22.689Z,1.90
2022-08-21T12:24:22.691Z,1.90
2022-08-21T12:25:22.664Z,2.20
2022-08-21T12:26:22.931Z,2.00
2022-08-21T12:27:22.624Z,2.30
2022-08-21T12:28:22.628Z,2.00
2022-08-21T12:29:22.599Z,1.70
2022-08-21T12:30:22.586Z,1.80
2022-08-21T12:31:22.606Z,2.00
2022-08-21T12:32:22.592Z,1.80
2022-08-21T12:33:22.576Z,2.20
2022-08-21T12:34:22.586Z,2.20
2022-08-21T12:35:24.543Z,2.00
2022-08-21T12:36:22.544Z,2.10
2022-08-21T12:37:22.495Z,2.20
2022-08-21T12:38:22.476Z,2.00
2022-08-21T12:39:22.534Z,1.80
2022-08-21T12:40:22.561Z,1.70
2022-08-21T12:41:22.444Z,2.00
2022-08-21T12:42:22.431Z,2.10
2022-08-21T12:43:22.442Z,1.80
2022-08-21T12:44:22.409Z,2.00
2022-08-21T12:45:22.424Z,2.10
2022-08-21T12:46:22.407Z,2.00
2022-08-21T12:47:22.384Z,1.70
2022-08-21T12:48:24.202Z,2.00
2022-08-21T12:49:26.631Z,2.00
2022-08-21T12:50:22.339Z,2.20
2022-08-21T12:51:22.307Z,1.90
2022-08-21T12:52:22.310Z,1.80
2022-08-21T12:53:22.294Z,1.90
2022-08-21T12:54:22.278Z,2.10
2022-08-21T12:55:22.252Z,1.90
2022-08-21T12:56:22.249Z,1.80
2022-08-21T12:57:22.260Z,1.70
2022-08-21T12:58:22.214Z,2.00
2022-08-21T12:59:22.230Z,1.90
2022-08-21T13:00:22.206Z,2.20
2022-08-21T13:01:22.246Z,2.40
2022-08-21T13:02:22.193Z,1.80
2022-08-21T13:03:22.169Z,1.90
2022-08-21T13:04:22.161Z,1.70
2022-08-21T13:05:22.166Z,2.00
2022-08-21T13:06:22.143Z,1.80
2022-08-21T13:07:22.098Z,1.70
2022-08-21T13:08:22.140Z,2.00
2022-08-21T13:09:22.118Z,1.60
2022-08-21T13:10:22.144Z,1.70
2022-08-21T13:11:32.442Z,1.90
2022-08-21T13:12:22.051Z,1.50
2022-08-21T13:13:25.527Z,2.00
2022-08-21T13:14:22.067Z,1.80
2022-08-21T13:15:22.032Z,1.80
2022-08-21T13:16:22.037Z,1.70
2022-08-21T13:17:23.468Z,1.60
2022-08-21T13:18:22.018Z,1.80